sensor_id;sensor_type;location;lat;lon;timestamp;P1;durP1;ratioP1;P2;durP2;ratioP2
73841;SDS011;62184;52.006;5.924;2022-12-18T00:02:14;92.13;;;31.88;;
73841;SDS011;62184;52.006;5.924;2022-12-18T00:04:43;93.05;;;32.58;;
73841;SDS011;62184;52.006;5.924;2022-12-18T00:07:09;89.23;;;31.93;;
73841;SDS011;62184;52.006;5.924;2022-12-18T00:09:36;85.80;;;31.83;;
73841;SDS011;62184;52.006;5.924;2022-12-18T00:12:02;96.70;;;33.13;;
73841;SDS011;62184;52.006;5.924;2022-12-18T00:14:30;88.93;;;32.03;;
73841;SDS011;62184;52.006;5.924;2022-12-18T00:16:56;86.68;;;32.30;;
73841;SDS011;62184;52.006;5.924;2022-12-18T00:19:23;86.20;;;31.85;;
73841;SDS011;62184;52.006;5.924;2022-12-18T00:21:52;91.83;;;34.27;;
73841;SDS011;62184;52.006;5.924;2022-12-18T00:24:19;86.13;;;32.40;;
73841;SDS011;62184;52.006;5.924;2022-12-18T00:26:46;82.25;;;31.20;;
73841;SDS011;62184;52.006;5.924;2022-12-18T00:29:13;83.15;;;32.03;;
73841;SDS011;62184;52.006;5.924;2022-12-18T00:31:40;79.90;;;31.13;;
73841;SDS011;62184;52.006;5.924;2022-12-18T00:34:08;78.57;;;31.30;;
73841;SDS011;62184;52.006;5.924;2022-12-18T00:36:36;86.00;;;31.60;;
73841;SDS011;62184;52.006;5.924;2022-12-18T00:39:05;83.23;;;30.30;;
73841;SDS011;62184;52.006;5.924;2022-12-18T00:41:31;83.55;;;30.95;;
73841;SDS011;62184;52.006;5.924;2022-12-18T00:43:58;77.95;;;30.88;;
73841;SDS011;62184;52.006;5.924;2022-12-18T00:46:24;72.97;;;29.15;;
73841;SDS011;62184;52.006;5.924;2022-12-18T00:48:51;81.22;;;30.17;;
73841;SDS011;62184;52.006;5.924;2022-12-18T00:51:17;73.95;;;29.58;;
73841;SDS011;62184;52.006;5.924;2022-12-18T00:53:44;71.13;;;29.20;;
73841;SDS011;62184;52.006;5.924;2022-12-18T00:56:13;70.72;;;28.63;;
73841;SDS011;62184;52.006;5.924;2022-12-18T00:58:39;70.03;;;30.20;;
73841;SDS011;62184;52.006;5.924;2022-12-18T01:01:06;69.27;;;29.83;;
73841;SDS011;62184;52.006;5.924;2022-12-18T01:03:35;65.35;;;27.98;;
73841;SDS011;62184;52.006;5.924;2022-12-18T01:06:05;63.55;;;27.83;;
73841;SDS011;62184;52.006;5.924;2022-12-18T01:08:32;65.40;;;28.33;;
73841;SDS011;62184;52.006;5.924;2022-12-18T01:10:59;59.50;;;26.83;;
73841;SDS011;62184;52.006;5.924;2022-12-18T01:13:28;59.60;;;26.80;;
73841;SDS011;62184;52.006;5.924;2022-12-18T01:15:54;58.30;;;26.25;;
73841;SDS011;62184;52.006;5.924;2022-12-18T01:18:21;61.10;;;26.45;;
73841;SDS011;62184;52.006;5.924;2022-12-18T01:20:47;55.25;;;26.15;;
73841;SDS011;62184;52.006;5.924;2022-12-18T01:23:14;60.95;;;26.20;;
73841;SDS011;62184;52.006;5.924;2022-12-18T01:25:40;56.95;;;26.15;;
73841;SDS011;62184;52.006;5.924;2022-12-18T01:28:07;57.42;;;26.80;;
73841;SDS011;62184;52.006;5.924;2022-12-18T01:30:36;55.90;;;25.50;;
73841;SDS011;62184;52.006;5.924;2022-12-18T01:33:03;57.70;;;25.83;;
73841;SDS011;62184;52.006;5.924;2022-12-18T01:35:30;56.38;;;25.50;;
73841;SDS011;62184;52.006;5.924;2022-12-18T01:37:57;54.00;;;24.77;;
73841;SDS011;62184;52.006;5.924;2022-12-18T01:40:23;52.07;;;24.70;;
73841;SDS011;62184;52.006;5.924;2022-12-18T01:42:50;52.80;;;24.90;;
73841;SDS011;62184;52.006;5.924;2022-12-18T01:45:25;55.63;;;26.65;;
73841;SDS011;62184;52.006;5.924;2022-12-18T01:47:57;57.42;;;25.85;;
73841;SDS011;62184;52.006;5.924;2022-12-18T01:50:31;52.77;;;25.70;;
73841;SDS011;62184;52.006;5.924;2022-12-18T01:53:03;54.33;;;25.60;;
73841;SDS011;62184;52.006;5.924;2022-12-18T01:55:36;58.05;;;25.25;;
73841;SDS011;62184;52.006;5.924;2022-12-18T01:58:09;54.67;;;25.13;;
73841;SDS011;62184;52.006;5.924;2022-12-18T02:00:36;53.50;;;24.53;;
73841;SDS011;62184;52.006;5.924;2022-12-18T02:03:05;53.40;;;24.53;;
73841;SDS011;62184;52.006;5.924;2022-12-18T02:05:35;52.42;;;24.67;;
73841;SDS011;62184;52.006;5.924;2022-12-18T02:08:12;53.78;;;24.08;;
73841;SDS011;62184;52.006;5.924;2022-12-18T02:10:48;54.88;;;24.48;;
73841;SDS011;62184;52.006;5.924;2022-12-18T02:13:29;50.10;;;23.97;;
73841;SDS011;62184;52.006;5.924;2022-12-18T02:16:08;49.25;;;24.40;;
73841;SDS011;62184;52.006;5.924;2022-12-18T02:18:50;47.85;;;22.90;;
73841;SDS011;62184;52.006;5.924;2022-12-18T02:21:25;48.42;;;23.52;;
73841;SDS011;62184;52.006;5.924;2022-12-18T02:24:11;50.28;;;23.23;;
73841;SDS011;62184;52.006;5.924;2022-12-18T02:26:58;50.03;;;24.75;;
73841;SDS011;62184;52.006;5.924;2022-12-18T02:29:32;45.83;;;23.30;;
73841;SDS011;62184;52.006;5.924;2022-12-18T02:32:06;48.00;;;23.05;;
73841;SDS011;62184;52.006;5.924;2022-12-18T02:34:40;52.08;;;23.40;;
73841;SDS011;62184;52.006;5.924;2022-12-18T02:37:11;49.45;;;22.80;;
73841;SDS011;62184;52.006;5.924;2022-12-18T02:39:43;47.13;;;23.02;;
73841;SDS011;62184;52.006;5.924;2022-12-18T02:42:18;46.30;;;22.30;;
73841;SDS011;62184;52.006;5.924;2022-12-18T02:44:46;46.65;;;22.70;;
73841;SDS011;62184;52.006;5.924;2022-12-18T02:47:15;46.45;;;22.70;;
73841;SDS011;62184;52.006;5.924;2022-12-18T02:49:49;46.50;;;21.88;;
73841;SDS011;62184;52.006;5.924;2022-12-18T02:52:29;46.67;;;22.83;;
73841;SDS011;62184;52.006;5.924;2022-12-18T02:55:15;44.08;;;22.27;;
73841;SDS011;62184;52.006;5.924;2022-12-18T02:57:58;46.13;;;22.35;;
73841;SDS011;62184;52.006;5.924;2022-12-18T03:00:37;45.08;;;21.33;;
73841;SDS011;62184;52.006;5.924;2022-12-18T03:03:12;42.50;;;20.83;;
73841;SDS011;62184;52.006;5.924;2022-12-18T03:05:50;44.05;;;21.52;;
73841;SDS011;62184;52.006;5.924;2022-12-18T03:08:24;44.73;;;21.97;;
73841;SDS011;62184;52.006;5.924;2022-12-18T03:10:55;42.65;;;20.73;;
73841;SDS011;62184;52.006;5.924;2022-12-18T03:13:31;44.47;;;21.08;;
73841;SDS011;62184;52.006;5.924;2022-12-18T03:16:03;42.95;;;21.00;;
73841;SDS011;62184;52.006;5.924;2022-12-18T03:18:37;41.40;;;20.90;;
73841;SDS011;62184;52.006;5.924;2022-12-18T03:21:11;40.85;;;20.98;;
73841;SDS011;62184;52.006;5.924;2022-12-18T03:23:44;40.65;;;20.58;;
73841;SDS011;62184;52.006;5.924;2022-12-18T03:26:16;38.88;;;20.35;;
73841;SDS011;62184;52.006;5.924;2022-12-18T03:28:53;42.13;;;20.40;;
73841;SDS011;62184;52.006;5.924;2022-12-18T03:31:25;40.05;;;20.08;;
73841;SDS011;62184;52.006;5.924;2022-12-18T03:33:57;39.80;;;20.07;;
73841;SDS011;62184;52.006;5.924;2022-12-18T03:36:29;39.25;;;20.00;;
73841;SDS011;62184;52.006;5.924;2022-12-18T03:38:56;39.70;;;19.30;;
73841;SDS011;62184;52.006;5.924;2022-12-18T03:41:24;40.50;;;19.92;;
73841;SDS011;62184;52.006;5.924;2022-12-18T03:44:01;36.43;;;19.70;;
73841;SDS011;62184;52.006;5.924;2022-12-18T03:46:40;37.78;;;19.17;;
73841;SDS011;62184;52.006;5.924;2022-12-18T03:49:22;36.43;;;18.80;;
73841;SDS011;62184;52.006;5.924;2022-12-18T03:52:00;36.65;;;18.70;;
73841;SDS011;62184;52.006;5.924;2022-12-18T03:54:31;35.38;;;18.02;;
73841;SDS011;62184;52.006;5.924;2022-12-18T03:57:06;36.78;;;17.50;;
73841;SDS011;62184;52.006;5.924;2022-12-18T03:59:45;34.08;;;17.95;;
73841;SDS011;62184;52.006;5.924;2022-12-18T04:02:17;36.70;;;18.27;;
73841;SDS011;62184;52.006;5.924;2022-12-18T04:04:48;33.78;;;17.23;;
73841;SDS011;62184;52.006;5.924;2022-12-18T04:07:19;34.95;;;17.00;;
73841;SDS011;62184;52.006;5.924;2022-12-18T04:09:47;30.60;;;16.55;;
73841;SDS011;62184;52.006;5.924;2022-12-18T04:12:17;32.63;;;17.40;;
73841;SDS011;62184;52.006;5.924;2022-12-18T04:14:46;31.60;;;15.98;;
73841;SDS011;62184;52.006;5.924;2022-12-18T04:17:13;29.15;;;16.25;;
73841;SDS011;62184;52.006;5.924;2022-12-18T04:19:39;32.30;;;16.38;;
73841;SDS011;62184;52.006;5.924;2022-12-18T04:22:06;31.55;;;16.27;;
73841;SDS011;62184;52.006;5.924;2022-12-18T04:24:32;29.58;;;15.98;;
73841;SDS011;62184;52.006;5.924;2022-12-18T04:26:59;34.08;;;17.20;;
73841;SDS011;62184;52.006;5.924;2022-12-18T04:29:25;31.50;;;16.13;;
73841;SDS011;62184;52.006;5.924;2022-12-18T04:31:54;31.13;;;16.17;;
73841;SDS011;62184;52.006;5.924;2022-12-18T04:34:21;30.00;;;15.88;;
73841;SDS011;62184;52.006;5.924;2022-12-18T04:36:47;29.45;;;16.20;;
73841;SDS011;62184;52.006;5.924;2022-12-18T04:39:14;28.48;;;15.15;;
73841;SDS011;62184;52.006;5.924;2022-12-18T04:41:40;27.63;;;14.90;;
73841;SDS011;62184;52.006;5.924;2022-12-18T04:44:07;27.50;;;15.25;;
73841;SDS011;62184;52.006;5.924;2022-12-18T04:46:34;27.83;;;14.67;;
73841;SDS011;62184;52.006;5.924;2022-12-18T04:49:03;29.40;;;15.25;;
73841;SDS011;62184;52.006;5.924;2022-12-18T04:51:29;26.40;;;14.65;;
73841;SDS011;62184;52.006;5.924;2022-12-18T04:53:56;29.15;;;15.00;;
73841;SDS011;62184;52.006;5.924;2022-12-18T04:56:22;29.52;;;15.40;;
73841;SDS011;62184;52.006;5.924;2022-12-18T04:58:49;27.25;;;14.85;;
73841;SDS011;62184;52.006;5.924;2022-12-18T05:01:16;26.60;;;14.93;;
73841;SDS011;62184;52.006;5.924;2022-12-18T05:03:44;25.40;;;13.87;;
73841;SDS011;62184;52.006;5.924;2022-12-18T05:06:14;27.77;;;14.93;;
73841;SDS011;62184;52.006;5.924;2022-12-18T05:08:40;27.90;;;14.85;;
73841;SDS011;62184;52.006;5.924;2022-12-18T05:11:07;27.23;;;15.20;;
73841;SDS011;62184;52.006;5.924;2022-12-18T05:13:36;27.20;;;15.03;;
73841;SDS011;62184;52.006;5.924;2022-12-18T05:16:04;28.60;;;15.40;;
73841;SDS011;62184;52.006;5.924;2022-12-18T05:18:32;27.25;;;15.80;;
73841;SDS011;62184;52.006;5.924;2022-12-18T05:20:59;28.60;;;15.40;;
73841;SDS011;62184;52.006;5.924;2022-12-18T05:23:28;26.93;;;14.77;;
73841;SDS011;62184;52.006;5.924;2022-12-18T05:25:56;28.97;;;15.00;;
73841;SDS011;62184;52.006;5.924;2022-12-18T05:28:25;27.50;;;15.20;;
73841;SDS011;62184;52.006;5.924;2022-12-18T05:30:55;27.27;;;15.02;;
73841;SDS011;62184;52.006;5.924;2022-12-18T05:33:25;29.52;;;15.68;;
73841;SDS011;62184;52.006;5.924;2022-12-18T05:35:56;29.73;;;15.27;;
73841;SDS011;62184;52.006;5.924;2022-12-18T05:38:34;27.92;;;16.10;;
73841;SDS011;62184;52.006;5.924;2022-12-18T05:41:03;26.40;;;14.35;;
73841;SDS011;62184;52.006;5.924;2022-12-18T05:43:31;24.88;;;14.65;;
73841;SDS011;62184;52.006;5.924;2022-12-18T05:46:02;27.10;;;14.50;;
73841;SDS011;62184;52.006;5.924;2022-12-18T05:48:30;26.13;;;14.47;;
73841;SDS011;62184;52.006;5.924;2022-12-18T05:51:02;26.80;;;14.80;;
73841;SDS011;62184;52.006;5.924;2022-12-18T05:53:35;27.58;;;14.35;;
73841;SDS011;62184;52.006;5.924;2022-12-18T05:56:03;25.13;;;14.48;;
73841;SDS011;62184;52.006;5.924;2022-12-18T05:58:33;25.92;;;14.57;;
73841;SDS011;62184;52.006;5.924;2022-12-18T06:01:05;27.15;;;14.65;;
73841;SDS011;62184;52.006;5.924;2022-12-18T06:03:34;26.08;;;15.07;;
73841;SDS011;62184;52.006;5.924;2022-12-18T06:06:01;27.38;;;14.73;;
73841;SDS011;62184;52.006;5.924;2022-12-18T06:08:27;24.95;;;14.27;;
73841;SDS011;62184;52.006;5.924;2022-12-18T06:10:57;25.73;;;13.82;;
73841;SDS011;62184;52.006;5.924;2022-12-18T06:13:23;26.40;;;14.77;;
73841;SDS011;62184;52.006;5.924;2022-12-18T06:15:49;26.63;;;14.88;;
73841;SDS011;62184;52.006;5.924;2022-12-18T06:18:16;25.10;;;14.82;;
73841;SDS011;62184;52.006;5.924;2022-12-18T06:20:42;26.88;;;14.70;;
73841;SDS011;62184;52.006;5.924;2022-12-18T06:23:09;26.75;;;14.65;;
73841;SDS011;62184;52.006;5.924;2022-12-18T06:25:37;25.98;;;15.05;;
73841;SDS011;62184;52.006;5.924;2022-12-18T06:28:08;27.05;;;14.73;;
73841;SDS011;62184;52.006;5.924;2022-12-18T06:30:34;27.63;;;15.13;;
73841;SDS011;62184;52.006;5.924;2022-12-18T06:33:00;26.17;;;14.63;;
73841;SDS011;62184;52.006;5.924;2022-12-18T06:35:27;26.33;;;14.57;;
73841;SDS011;62184;52.006;5.924;2022-12-18T06:37:53;25.10;;;13.57;;
73841;SDS011;62184;52.006;5.924;2022-12-18T06:40:20;26.97;;;14.63;;
73841;SDS011;62184;52.006;5.924;2022-12-18T06:42:46;26.60;;;14.33;;
73841;SDS011;62184;52.006;5.924;2022-12-18T06:45:15;25.65;;;14.23;;
73841;SDS011;62184;52.006;5.924;2022-12-18T06:47:42;25.70;;;14.00;;
73841;SDS011;62184;52.006;5.924;2022-12-18T06:50:09;26.92;;;14.25;;
73841;SDS011;62184;52.006;5.924;2022-12-18T06:52:36;26.27;;;14.45;;
73841;SDS011;62184;52.006;5.924;2022-12-18T06:55:03;26.02;;;14.35;;
73841;SDS011;62184;52.006;5.924;2022-12-18T06:57:31;24.77;;;14.40;;
73841;SDS011;62184;52.006;5.924;2022-12-18T06:59:57;25.30;;;14.80;;
73841;SDS011;62184;52.006;5.924;2022-12-18T07:02:26;24.43;;;13.80;;
73841;SDS011;62184;52.006;5.924;2022-12-18T07:04:53;25.60;;;13.90;;
73841;SDS011;62184;52.006;5.924;2022-12-18T07:07:19;28.13;;;15.80;;
73841;SDS011;62184;52.006;5.924;2022-12-18T07:09:45;24.48;;;13.82;;
73841;SDS011;62184;52.006;5.924;2022-12-18T07:12:12;24.77;;;14.52;;
73841;SDS011;62184;52.006;5.924;2022-12-18T07:14:39;25.20;;;14.13;;
73841;SDS011;62184;52.006;5.924;2022-12-18T07:17:05;25.60;;;13.68;;
73841;SDS011;62184;52.006;5.924;2022-12-18T07:19:34;24.90;;;13.77;;
73841;SDS011;62184;52.006;5.924;2022-12-18T07:22:01;26.15;;;13.73;;
73841;SDS011;62184;52.006;5.924;2022-12-18T07:24:27;26.60;;;14.32;;
73841;SDS011;62184;52.006;5.924;2022-12-18T07:26:54;27.20;;;14.73;;
73841;SDS011;62184;52.006;5.924;2022-12-18T07:29:20;25.25;;;13.88;;
73841;SDS011;62184;52.006;5.924;2022-12-18T07:31:47;24.17;;;13.80;;
73841;SDS011;62184;52.006;5.924;2022-12-18T07:34:14;25.58;;;13.80;;
73841;SDS011;62184;52.006;5.924;2022-12-18T07:36:43;26.88;;;13.63;;
73841;SDS011;62184;52.006;5.924;2022-12-18T07:39:10;23.92;;;13.10;;
73841;SDS011;62184;52.006;5.924;2022-12-18T07:41:37;23.83;;;13.18;;
73841;SDS011;62184;52.006;5.924;2022-12-18T07:44:03;22.35;;;12.45;;
73841;SDS011;62184;52.006;5.924;2022-12-18T07:46:30;23.80;;;13.52;;
73841;SDS011;62184;52.006;5.924;2022-12-18T07:48:56;23.55;;;13.13;;
73841;SDS011;62184;52.006;5.924;2022-12-18T07:51:23;24.13;;;13.30;;
73841;SDS011;62184;52.006;5.924;2022-12-18T07:53:52;24.47;;;13.23;;
73841;SDS011;62184;52.006;5.924;2022-12-18T07:56:19;24.42;;;13.23;;
73841;SDS011;62184;52.006;5.924;2022-12-18T07:58:46;25.67;;;13.27;;
73841;SDS011;62184;52.006;5.924;2022-12-18T08:01:13;24.20;;;12.75;;
73841;SDS011;62184;52.006;5.924;2022-12-18T08:03:39;23.80;;;13.07;;
73841;SDS011;62184;52.006;5.924;2022-12-18T08:06:07;25.30;;;13.43;;
73841;SDS011;62184;52.006;5.924;2022-12-18T08:08:35;24.50;;;13.65;;
73841;SDS011;62184;52.006;5.924;2022-12-18T08:11:04;25.33;;;14.05;;
73841;SDS011;62184;52.006;5.924;2022-12-18T08:13:31;25.40;;;13.60;;
73841;SDS011;62184;52.006;5.924;2022-12-18T08:15:58;26.73;;;13.83;;
73841;SDS011;62184;52.006;5.924;2022-12-18T08:18:27;24.75;;;13.50;;
73841;SDS011;62184;52.006;5.924;2022-12-18T08:20:54;24.88;;;13.48;;
73841;SDS011;62184;52.006;5.924;2022-12-18T08:23:21;23.48;;;13.15;;
73841;SDS011;62184;52.006;5.924;2022-12-18T08:25:48;24.33;;;13.50;;
73841;SDS011;62184;52.006;5.924;2022-12-18T08:28:18;22.83;;;12.95;;
73841;SDS011;62184;52.006;5.924;2022-12-18T08:30:45;22.13;;;12.95;;
73841;SDS011;62184;52.006;5.924;2022-12-18T08:33:11;24.15;;;13.43;;
73841;SDS011;62184;52.006;5.924;2022-12-18T08:35:38;24.92;;;13.13;;
73841;SDS011;62184;52.006;5.924;2022-12-18T08:38:04;24.65;;;13.25;;
73841;SDS011;62184;52.006;5.924;2022-12-18T08:40:31;23.13;;;13.00;;
73841;SDS011;62184;52.006;5.924;2022-12-18T08:42:57;24.70;;;12.90;;
73841;SDS011;62184;52.006;5.924;2022-12-18T08:45:26;26.85;;;13.93;;
73841;SDS011;62184;52.006;5.924;2022-12-18T08:47:53;23.57;;;13.00;;
73841;SDS011;62184;52.006;5.924;2022-12-18T08:50:20;25.80;;;13.30;;
73841;SDS011;62184;52.006;5.924;2022-12-18T08:52:46;24.67;;;13.27;;
73841;SDS011;62184;52.006;5.924;2022-12-18T08:55:13;23.58;;;12.43;;
73841;SDS011;62184;52.006;5.924;2022-12-18T08:57:39;25.52;;;13.63;;
73841;SDS011;62184;52.006;5.924;2022-12-18T09:00:06;23.52;;;13.02;;
73841;SDS011;62184;52.006;5.924;2022-12-18T09:02:37;24.35;;;12.93;;
73841;SDS011;62184;52.006;5.924;2022-12-18T09:05:04;23.65;;;13.48;;
73841;SDS011;62184;52.006;5.924;2022-12-18T09:07:31;25.30;;;13.20;;
73841;SDS011;62184;52.006;5.924;2022-12-18T09:09:58;23.35;;;12.88;;
73841;SDS011;62184;52.006;5.924;2022-12-18T09:12:25;23.02;;;12.90;;
73841;SDS011;62184;52.006;5.924;2022-12-18T09:14:51;21.05;;;12.52;;
73841;SDS011;62184;52.006;5.924;2022-12-18T09:17:18;24.98;;;12.43;;
73841;SDS011;62184;52.006;5.924;2022-12-18T09:19:47;22.25;;;12.32;;
73841;SDS011;62184;52.006;5.924;2022-12-18T09:22:13;23.23;;;12.57;;
73841;SDS011;62184;52.006;5.924;2022-12-18T09:24:40;22.70;;;12.53;;
73841;SDS011;62184;52.006;5.924;2022-12-18T09:27:06;21.80;;;11.97;;
73841;SDS011;62184;52.006;5.924;2022-12-18T09:29:33;23.30;;;12.33;;
73841;SDS011;62184;52.006;5.924;2022-12-18T09:31:59;20.85;;;11.95;;
73841;SDS011;62184;52.006;5.924;2022-12-18T09:34:25;20.75;;;11.63;;
73841;SDS011;62184;52.006;5.924;2022-12-18T09:36:54;21.05;;;11.55;;
73841;SDS011;62184;52.006;5.924;2022-12-18T09:39:21;20.15;;;11.38;;
73841;SDS011;62184;52.006;5.924;2022-12-18T09:41:50;21.17;;;10.90;;
73841;SDS011;62184;52.006;5.924;2022-12-18T09:44:23;20.80;;;11.25;;
73841;SDS011;62184;52.006;5.924;2022-12-18T09:46:55;20.30;;;11.47;;
73841;SDS011;62184;52.006;5.924;2022-12-18T09:49:34;20.30;;;10.73;;
73841;SDS011;62184;52.006;5.924;2022-12-18T09:52:11;20.27;;;11.05;;
73841;SDS011;62184;52.006;5.924;2022-12-18T09:54:46;19.65;;;11.40;;
73841;SDS011;62184;52.006;5.924;2022-12-18T09:57:20;20.20;;;11.55;;
73841;SDS011;62184;52.006;5.924;2022-12-18T09:59:50;20.33;;;11.32;;
73841;SDS011;62184;52.006;5.924;2022-12-18T10:02:23;19.58;;;11.30;;
73841;SDS011;62184;52.006;5.924;2022-12-18T10:04:55;22.27;;;11.80;;
73841;SDS011;62184;52.006;5.924;2022-12-18T10:07:35;21.85;;;12.40;;
73841;SDS011;62184;52.006;5.924;2022-12-18T10:10:19;20.42;;;11.65;;
73841;SDS011;62184;52.006;5.924;2022-12-18T10:13:00;20.90;;;11.98;;
73841;SDS011;62184;52.006;5.924;2022-12-18T10:15:39;21.95;;;11.65;;
73841;SDS011;62184;52.006;5.924;2022-12-18T10:18:23;21.50;;;11.23;;
73841;SDS011;62184;52.006;5.924;2022-12-18T10:21:08;20.40;;;11.87;;
73841;SDS011;62184;52.006;5.924;2022-12-18T10:23:47;20.52;;;11.63;;
73841;SDS011;62184;52.006;5.924;2022-12-18T10:26:26;22.40;;;12.38;;
73841;SDS011;62184;52.006;5.924;2022-12-18T10:28:52;20.20;;;11.52;;
73841;SDS011;62184;52.006;5.924;2022-12-18T10:31:23;21.10;;;12.35;;
73841;SDS011;62184;52.006;5.924;2022-12-18T10:33:50;21.77;;;12.20;;
73841;SDS011;62184;52.006;5.924;2022-12-18T10:36:19;20.67;;;12.07;;
73841;SDS011;62184;52.006;5.924;2022-12-18T10:38:48;21.58;;;12.43;;
73841;SDS011;62184;52.006;5.924;2022-12-18T10:41:24;21.17;;;12.00;;
73841;SDS011;62184;52.006;5.924;2022-12-18T10:46:43;20.13;;;12.13;;
73841;SDS011;62184;52.006;5.924;2022-12-18T10:49:18;22.58;;;12.48;;
73841;SDS011;62184;52.006;5.924;2022-12-18T10:51:49;19.83;;;11.55;;
73841;SDS011;62184;52.006;5.924;2022-12-18T10:54:32;20.63;;;12.05;;
73841;SDS011;62184;52.006;5.924;2022-12-18T10:57:13;20.73;;;11.82;;
73841;SDS011;62184;52.006;5.924;2022-12-18T10:59:49;21.15;;;12.18;;
73841;SDS011;62184;52.006;5.924;2022-12-18T11:02:24;19.83;;;11.90;;
73841;SDS011;62184;52.006;5.924;2022-12-18T11:04:59;20.17;;;12.07;;
73841;SDS011;62184;52.006;5.924;2022-12-18T11:07:30;20.98;;;11.65;;
73841;SDS011;62184;52.006;5.924;2022-12-18T11:10:18;21.48;;;12.27;;
73841;SDS011;62184;52.006;5.924;2022-12-18T11:12:46;21.50;;;12.37;;
73841;SDS011;62184;52.006;5.924;2022-12-18T11:15:15;19.30;;;11.65;;
73841;SDS011;62184;52.006;5.924;2022-12-18T11:17:46;21.03;;;12.10;;
73841;SDS011;62184;52.006;5.924;2022-12-18T11:20:20;19.92;;;12.13;;
73841;SDS011;62184;52.006;5.924;2022-12-18T11:22:57;20.98;;;12.35;;
73841;SDS011;62184;52.006;5.924;2022-12-18T11:25:29;20.10;;;11.93;;
73841;SDS011;62184;52.006;5.924;2022-12-18T11:27:58;19.80;;;11.65;;
73841;SDS011;62184;52.006;5.924;2022-12-18T11:30:28;19.33;;;11.52;;
73841;SDS011;62184;52.006;5.924;2022-12-18T11:32:58;20.45;;;11.93;;
73841;SDS011;62184;52.006;5.924;2022-12-18T11:35:38;19.05;;;11.52;;
73841;SDS011;62184;52.006;5.924;2022-12-18T11:38:17;20.50;;;11.88;;
73841;SDS011;62184;52.006;5.924;2022-12-18T11:40:53;19.00;;;11.33;;
73841;SDS011;62184;52.006;5.924;2022-12-18T11:43:27;19.35;;;11.48;;
73841;SDS011;62184;52.006;5.924;2022-12-18T11:46:02;19.65;;;11.52;;
73841;SDS011;62184;52.006;5.924;2022-12-18T11:48:37;18.55;;;11.52;;
73841;SDS011;62184;52.006;5.924;2022-12-18T11:51:14;19.40;;;11.93;;
73841;SDS011;62184;52.006;5.924;2022-12-18T11:53:57;19.35;;;11.80;;
73841;SDS011;62184;52.006;5.924;2022-12-18T11:56:29;19.63;;;11.68;;
73841;SDS011;62184;52.006;5.924;2022-12-18T11:59:04;19.63;;;11.70;;
73841;SDS011;62184;52.006;5.924;2022-12-18T12:01:48;20.17;;;12.43;;
73841;SDS011;62184;52.006;5.924;2022-12-18T12:07:23;19.30;;;12.13;;
73841;SDS011;62184;52.006;5.924;2022-12-18T12:10:06;20.45;;;12.25;;
73841;SDS011;62184;52.006;5.924;2022-12-18T12:12:57;19.88;;;11.63;;
73841;SDS011;62184;52.006;5.924;2022-12-18T12:15:46;19.30;;;11.40;;
73841;SDS011;62184;52.006;5.924;2022-12-18T12:18:34;18.40;;;11.60;;
73841;SDS011;62184;52.006;5.924;2022-12-18T12:21:18;17.98;;;11.50;;
73841;SDS011;62184;52.006;5.924;2022-12-18T12:23:55;17.63;;;11.23;;
73841;SDS011;62184;52.006;5.924;2022-12-18T12:26:38;18.17;;;11.60;;
73841;SDS011;62184;52.006;5.924;2022-12-18T12:29:24;18.83;;;11.30;;
73841;SDS011;62184;52.006;5.924;2022-12-18T12:32:15;18.67;;;11.18;;
73841;SDS011;62184;52.006;5.924;2022-12-18T12:35:01;18.45;;;11.35;;
73841;SDS011;62184;52.006;5.924;2022-12-18T12:37:46;18.58;;;11.48;;
73841;SDS011;62184;52.006;5.924;2022-12-18T12:40:31;17.73;;;11.23;;
73841;SDS011;62184;52.006;5.924;2022-12-18T12:43:10;19.10;;;11.10;;
73841;SDS011;62184;52.006;5.924;2022-12-18T12:45:55;17.88;;;11.18;;
73841;SDS011;62184;52.006;5.924;2022-12-18T12:48:36;18.48;;;11.25;;
73841;SDS011;62184;52.006;5.924;2022-12-18T12:51:11;19.05;;;11.45;;
73841;SDS011;62184;52.006;5.924;2022-12-18T12:53:43;17.98;;;11.05;;
73841;SDS011;62184;52.006;5.924;2022-12-18T12:56:12;18.60;;;10.90;;
73841;SDS011;62184;52.006;5.924;2022-12-18T12:58:45;19.45;;;11.80;;
73841;SDS011;62184;52.006;5.924;2022-12-18T13:01:28;18.75;;;11.50;;
73841;SDS011;62184;52.006;5.924;2022-12-18T13:04:12;17.27;;;11.55;;
73841;SDS011;62184;52.006;5.924;2022-12-18T13:06:57;17.27;;;11.20;;
73841;SDS011;62184;52.006;5.924;2022-12-18T13:09:34;18.30;;;11.30;;
73841;SDS011;62184;52.006;5.924;2022-12-18T13:12:53;18.33;;;10.80;;
73841;SDS011;62184;52.006;5.924;2022-12-18T13:15:23;19.05;;;12.02;;
73841;SDS011;62184;52.006;5.924;2022-12-18T13:18:10;19.80;;;11.55;;
73841;SDS011;62184;52.006;5.924;2022-12-18T13:20:42;18.80;;;10.70;;
73841;SDS011;62184;52.006;5.924;2022-12-18T13:23:23;18.73;;;11.07;;
73841;SDS011;62184;52.006;5.924;2022-12-18T13:25:55;18.92;;;11.13;;
73841;SDS011;62184;52.006;5.924;2022-12-18T13:28:24;17.10;;;10.90;;
73841;SDS011;62184;52.006;5.924;2022-12-18T13:34:35;19.58;;;11.35;;
73841;SDS011;62184;52.006;5.924;2022-12-18T13:43:22;18.50;;;11.13;;
73841;SDS011;62184;52.006;5.924;2022-12-18T13:46:01;20.67;;;11.30;;
73841;SDS011;62184;52.006;5.924;2022-12-18T13:48:47;19.40;;;11.18;;
73841;SDS011;62184;52.006;5.924;2022-12-18T13:51:21;18.40;;;11.37;;
73841;SDS011;62184;52.006;5.924;2022-12-18T13:53:50;18.77;;;11.25;;
73841;SDS011;62184;52.006;5.924;2022-12-18T13:56:22;19.05;;;11.68;;
73841;SDS011;62184;52.006;5.924;2022-12-18T14:01:47;20.33;;;12.02;;
73841;SDS011;62184;52.006;5.924;2022-12-18T14:04:20;19.75;;;12.00;;
73841;SDS011;62184;52.006;5.924;2022-12-18T14:06:53;20.35;;;12.30;;
73841;SDS011;62184;52.006;5.924;2022-12-18T14:09:28;20.40;;;12.40;;
73841;SDS011;62184;52.006;5.924;2022-12-18T14:11:57;19.05;;;11.77;;
73841;SDS011;62184;52.006;5.924;2022-12-18T14:14:25;20.87;;;12.40;;
73841;SDS011;62184;52.006;5.924;2022-12-18T14:16:51;18.70;;;12.20;;
73841;SDS011;62184;52.006;5.924;2022-12-18T14:19:18;19.60;;;11.95;;
73841;SDS011;62184;52.006;5.924;2022-12-18T14:21:45;20.08;;;12.38;;
73841;SDS011;62184;52.006;5.924;2022-12-18T14:24:17;20.00;;;12.77;;
73841;SDS011;62184;52.006;5.924;2022-12-18T14:26:46;18.35;;;11.35;;
73841;SDS011;62184;52.006;5.924;2022-12-18T14:29:19;19.03;;;11.30;;
73841;SDS011;62184;52.006;5.924;2022-12-18T14:32:04;20.02;;;12.23;;
73841;SDS011;62184;52.006;5.924;2022-12-18T14:34:35;22.23;;;12.25;;
73841;SDS011;62184;52.006;5.924;2022-12-18T14:37:01;19.90;;;11.45;;
73841;SDS011;62184;52.006;5.924;2022-12-18T14:39:31;20.88;;;11.95;;
73841;SDS011;62184;52.006;5.924;2022-12-18T14:41:57;19.30;;;11.93;;
73841;SDS011;62184;52.006;5.924;2022-12-18T14:44:24;21.30;;;12.27;;
73841;SDS011;62184;52.006;5.924;2022-12-18T14:46:50;19.20;;;12.05;;
73841;SDS011;62184;52.006;5.924;2022-12-18T14:49:18;21.30;;;12.52;;
73841;SDS011;62184;52.006;5.924;2022-12-18T14:51:51;20.23;;;12.67;;
73841;SDS011;62184;52.006;5.924;2022-12-18T14:54:20;20.27;;;12.37;;
73841;SDS011;62184;52.006;5.924;2022-12-18T14:56:51;21.05;;;12.50;;
73841;SDS011;62184;52.006;5.924;2022-12-18T14:59:26;21.92;;;12.32;;
73841;SDS011;62184;52.006;5.924;2022-12-18T15:01:57;19.40;;;12.33;;
73841;SDS011;62184;52.006;5.924;2022-12-18T15:04:31;20.63;;;12.60;;